Kings, Illinois
Current Conditions -  °F | °C
As of 4:35 PM on Monday 24 Nov 2014 (Local Time) from KRPJ Reporting Station
Haze Haze  
Wind Chill: 10°   Ceiling: 1300
Heat Index: 25°   Visibility: 5mi
Dew Point: 23°   Wind: 25mph
Humidity: 89%   Direction: 260°W
Pressure: 29.61"   Gusts: 32mph
Location:  41.9424°N, 89.0653°W
Report Text: KRPJ 242235Z AUTO 26022G28KT 5SM BR OVC013 M04/M05 A2961 RMK AO2 T10371052
Loading
Personal Weather Stations






























Interactive Weather Map New forecast layout! Learn more

10-Day Weather Forecast

Advertisements
Track Severe Weather on mobile